createdAt,value
2023-05-13T21:16:06.465Z,13.68
2023-05-13T21:17:06.371Z,13.73
2023-05-13T21:18:06.395Z,13.76
2023-05-13T21:19:06.503Z,13.73
2023-05-13T21:20:06.237Z,13.70
2023-05-13T21:21:06.185Z,13.75
2023-05-13T21:22:06.145Z,13.70
2023-05-13T21:23:06.099Z,13.75
2023-05-13T21:24:06.047Z,13.73
2023-05-13T21:25:06.003Z,13.71
2023-05-13T21:26:05.971Z,13.75
2023-05-13T21:27:05.910Z,13.71
2023-05-13T21:28:05.865Z,13.71
2023-05-13T21:29:05.821Z,13.70
2023-05-13T21:30:05.781Z,13.70
2023-05-13T21:31:05.766Z,13.62
2023-05-13T21:32:05.713Z,13.70
2023-05-13T21:33:05.684Z,13.73
2023-05-13T21:34:05.602Z,13.68
2023-05-13T21:35:05.578Z,13.64
2023-05-13T21:36:05.509Z,13.68
2023-05-13T21:37:05.467Z,13.67
2023-05-13T21:38:12.479Z,13.68
2023-05-13T21:39:05.368Z,13.67
2023-05-13T21:40:05.324Z,13.70
2023-05-13T21:41:05.279Z,13.68
2023-05-13T21:42:05.237Z,13.68
2023-05-13T21:43:05.190Z,13.70
2023-05-13T21:44:05.173Z,13.65
2023-05-13T21:45:05.165Z,13.70
2023-05-13T21:46:05.054Z,13.65
2023-05-13T21:47:05.010Z,13.76
2023-05-13T21:50:13.179Z,13.67
2023-05-13T21:51:13.111Z,13.67
2023-05-13T21:52:13.076Z,13.71
2023-05-13T21:55:22.432Z,13.65
2023-05-13T21:56:21.166Z,13.67
2023-05-13T21:57:21.129Z,13.64
2023-05-13T21:58:23.249Z,13.67
2023-05-13T21:59:21.031Z,13.61
2023-05-13T22:00:21.152Z,13.71
2023-05-13T22:01:21.037Z,13.62
2023-05-13T22:02:21.022Z,13.68
2023-05-13T22:03:20.868Z,13.70
2023-05-13T22:04:20.824Z,13.60
2023-05-13T22:05:20.785Z,13.60
2023-05-13T22:06:20.729Z,13.54
2023-05-13T22:07:20.690Z,13.61
2023-05-13T22:08:20.630Z,13.54
2023-05-13T22:09:20.588Z,13.60
2023-05-13T22:10:20.584Z,13.57
2023-05-13T22:11:20.488Z,13.57
2023-05-13T22:12:20.445Z,13.60
2023-05-13T22:13:20.404Z,13.57
2023-05-13T22:14:20.362Z,13.54
2023-05-13T22:15:20.311Z,13.54
2023-05-13T22:16:20.332Z,13.57
2023-05-13T22:17:20.609Z,13.54
2023-05-13T22:18:20.250Z,13.55
2023-05-13T22:19:20.155Z,13.52
2023-05-13T22:20:20.091Z,13.54
2023-05-13T22:21:20.063Z,13.57
2023-05-13T22:22:20.000Z,13.57
2023-05-13T22:23:19.960Z,13.58
2023-05-13T22:24:19.899Z,13.50
2023-05-13T22:25:19.899Z,13.62
2023-05-13T22:26:19.842Z,13.60
2023-05-13T22:27:19.777Z,13.49
2023-05-13T22:28:19.734Z,13.55
2023-05-13T22:29:19.683Z,13.55
2023-05-13T22:30:19.637Z,13.60
2023-05-13T22:31:19.628Z,13.57
2023-05-13T22:32:19.555Z,13.55
2023-05-13T22:33:19.506Z,13.54
2023-05-13T22:34:19.456Z,13.52
2023-05-13T22:35:19.414Z,13.57
2023-05-13T22:36:19.367Z,13.49
2023-05-13T22:37:19.338Z,13.47
2023-05-13T22:38:19.279Z,13.50
2023-05-13T22:39:19.235Z,13.46
2023-05-13T22:40:19.194Z,13.43
2023-05-13T22:41:19.144Z,13.43
2023-05-13T22:42:19.096Z,13.45
2023-05-13T22:43:19.066Z,13.40
2023-05-13T22:44:19.011Z,13.47
2023-05-13T22:45:18.989Z,13.40
2023-05-13T22:46:18.970Z,13.46
2023-05-13T22:47:18.876Z,13.42
2023-05-13T22:48:18.831Z,13.36
2023-05-13T22:49:18.786Z,13.45
2023-05-13T22:50:18.732Z,13.45
2023-05-13T22:51:18.704Z,13.42
2023-05-13T22:52:18.646Z,13.47
2023-05-13T22:53:18.627Z,13.47
2023-05-13T22:54:18.567Z,13.42
2023-05-13T22:55:18.511Z,13.39
2023-05-13T22:56:18.467Z,13.43
2023-05-13T22:57:18.435Z,13.40
2023-05-13T22:58:18.393Z,13.36
2023-05-13T22:59:18.336Z,13.39
2023-05-13T23:00:18.292Z,13.33
2023-05-13T23:01:18.254Z,13.24
2023-05-13T23:02:18.198Z,13.37
2023-05-13T23:03:18.154Z,13.36
2023-05-13T23:04:18.159Z,13.31
2023-05-13T23:05:18.059Z,13.31
2023-05-13T23:06:18.016Z,13.27
2023-05-13T23:07:17.969Z,13.28
2023-05-13T23:08:17.920Z,13.20
2023-05-13T23:10:17.872Z,13.31
2023-05-13T23:11:17.792Z,13.17
2023-05-13T23:12:17.744Z,13.17
2023-05-13T23:13:17.694Z,13.13
2023-05-13T23:14:17.663Z,13.13
2023-05-13T23:15:17.626Z,13.16
2023-05-13T23:16:17.616Z,13.16
2023-05-13T23:17:17.524Z,13.13
2023-05-13T23:18:17.472Z,13.11
2023-05-13T23:19:17.425Z,12.99
2023-05-13T23:20:17.377Z,13.01
2023-05-13T23:21:17.367Z,13.02
2023-05-13T23:22:17.301Z,13.02
2023-05-13T23:23:17.243Z,13.02
2023-05-13T23:24:17.202Z,13.02
2023-05-13T23:25:17.158Z,12.98
2023-05-13T23:26:17.152Z,12.94
2023-05-13T23:27:17.066Z,12.91
2023-05-13T23:28:17.018Z,12.93
2023-05-13T23:29:16.980Z,12.84
2023-05-13T23:30:16.964Z,12.90
2023-05-13T23:31:16.921Z,12.91
2023-05-13T23:32:16.844Z,12.91
2023-05-13T23:33:16.792Z,12.90
2023-05-13T23:34:16.743Z,12.84
2023-05-13T23:35:16.702Z,12.83
2023-05-13T23:36:16.655Z,12.81
2023-05-13T23:37:16.609Z,12.80
2023-05-13T23:38:16.586Z,12.81
2023-05-13T23:39:16.530Z,12.76
2023-05-13T23:40:16.499Z,12.69
2023-05-13T23:41:16.438Z,12.75
2023-05-13T23:42:16.449Z,12.70
2023-05-13T23:43:16.360Z,12.68
2023-05-13T23:44:16.300Z,12.68
2023-05-13T23:45:16.258Z,12.58
2023-05-13T23:46:16.253Z,12.61
2023-05-13T23:48:16.130Z,12.65
2023-05-13T23:49:16.087Z,12.62
2023-05-13T23:50:16.033Z,12.57
2023-05-13T23:51:16.004Z,12.58
2023-05-13T23:52:15.949Z,12.62
2023-05-13T23:53:15.906Z,12.53
2023-05-13T23:54:15.862Z,12.47
2023-05-13T23:55:15.824Z,12.47
2023-05-13T23:56:15.775Z,12.45
2023-05-13T23:57:15.727Z,12.50
2023-05-13T23:58:15.710Z,12.40
2023-05-13T23:59:15.641Z,12.47
